createdAt,value
2023-03-25T00:00:39.668Z,7.33
2023-03-25T00:03:38.205Z,7.36
2023-03-25T00:06:35.128Z,7.34
2023-03-25T00:09:31.967Z,7.36
2023-03-25T00:12:28.786Z,7.34
2023-03-25T00:15:25.631Z,7.33
2023-03-25T00:18:22.956Z,7.35
2023-03-25T00:21:20.087Z,7.32
2023-03-25T00:24:17.989Z,7.35
2023-03-25T00:27:17.618Z,7.36
2023-03-25T00:30:16.636Z,7.33
2023-03-25T00:33:13.494Z,7.38
2023-03-25T00:36:14.438Z,7.35
2023-03-25T00:39:11.521Z,7.30
2023-03-25T00:42:11.100Z,7.34
2023-03-25T00:45:08.546Z,7.37
2023-03-25T00:48:06.886Z,7.35
2023-03-25T00:51:08.561Z,7.30
2023-03-25T00:54:05.462Z,7.32
2023-03-25T00:57:02.611Z,7.28
2023-03-25T00:59:59.608Z,7.32
2023-03-25T01:02:56.541Z,7.33
2023-03-25T01:05:56.010Z,7.28
2023-03-25T01:08:52.841Z,7.27
2023-03-25T01:11:50.067Z,7.23
2023-03-25T01:14:47.430Z,7.29
2023-03-25T01:17:44.287Z,7.22
2023-03-25T01:20:41.658Z,7.27
2023-03-25T01:23:38.702Z,7.24
2023-03-25T01:26:35.886Z,7.23
2023-03-25T01:29:32.852Z,7.20
2023-03-25T01:32:29.817Z,7.19
2023-03-25T01:35:26.755Z,7.19
2023-03-25T01:38:23.596Z,7.16
2023-03-25T01:41:20.555Z,7.12
2023-03-25T01:44:20.641Z,7.10
2023-03-25T01:47:17.803Z,7.12
2023-03-25T01:50:15.256Z,7.01
2023-03-25T01:53:12.766Z,7.10
2023-03-25T01:56:14.634Z,6.92
2023-03-25T01:59:11.516Z,7.00
2023-03-25T02:02:09.338Z,6.93
2023-03-25T02:05:36.310Z,6.78
2023-03-25T02:08:38.708Z,6.79
2023-03-25T02:11:36.179Z,6.65
2023-03-25T02:14:36.643Z,6.62
2023-03-25T02:18:04.160Z,6.60
2023-03-25T02:21:46.201Z,6.56
2023-03-25T02:25:13.388Z,6.52
2023-03-25T02:28:47.376Z,6.44
2023-03-25T02:32:18.223Z,6.49
2023-03-25T02:35:57.787Z,6.42
2023-03-25T02:39:29.127Z,6.19
2023-03-25T02:43:05.556Z,6.12
2023-03-25T02:46:09.637Z,5.97
2023-03-25T02:49:24.850Z,5.87
2023-03-25T02:52:34.386Z,5.95
2023-03-25T02:55:33.448Z,5.79
2023-03-25T02:58:31.567Z,5.79
2023-03-25T03:01:28.493Z,5.78
2023-03-25T03:04:26.120Z,5.74
2023-03-25T03:07:31.950Z,5.63
2023-03-25T03:11:06.895Z,5.58
2023-03-25T03:14:26.872Z,5.54
2023-03-25T03:18:08.845Z,5.59
2023-03-25T03:21:23.288Z,5.59
2023-03-25T03:24:39.361Z,5.53
2023-03-25T03:27:54.076Z,5.61
2023-03-25T03:31:06.824Z,5.53
2023-03-25T03:34:14.813Z,5.53
2023-03-25T03:37:22.501Z,5.53
2023-03-25T03:40:23.151Z,5.53
2023-03-25T03:43:39.191Z,5.54
2023-03-25T03:46:54.695Z,5.41
2023-03-25T03:49:58.926Z,5.65
2023-03-25T03:53:26.278Z,5.45
2023-03-25T03:56:38.429Z,5.48
2023-03-25T04:00:09.957Z,5.47
2023-03-25T04:03:18.748Z,5.36
2023-03-25T04:06:44.948Z,5.34
2023-03-25T04:09:55.773Z,5.42
2023-03-25T04:12:54.069Z,5.44
2023-03-25T04:15:51.290Z,5.43
2023-03-25T04:18:48.375Z,5.47
2023-03-25T04:21:47.974Z,5.42
2023-03-25T04:24:45.302Z,5.56
2023-03-25T04:27:48.740Z,5.56
2023-03-25T04:30:46.437Z,5.50
2023-03-25T04:33:48.562Z,5.45
2023-03-25T04:36:46.847Z,5.33
2023-03-25T04:39:43.723Z,5.35
2023-03-25T04:42:42.694Z,5.33
2023-03-25T04:45:39.571Z,5.37
2023-03-25T04:48:41.368Z,5.29
2023-03-25T04:51:38.232Z,5.18
2023-03-25T04:54:35.713Z,5.27
2023-03-25T04:57:32.713Z,5.21
2023-03-25T05:00:30.279Z,5.17
2023-03-25T05:03:27.147Z,5.29
2023-03-25T05:06:25.392Z,5.15
2023-03-25T05:09:23.648Z,5.18
2023-03-25T05:12:20.566Z,5.17
2023-03-25T05:15:17.529Z,5.22
2023-03-25T05:18:16.278Z,5.23
2023-03-25T05:21:13.210Z,5.20
2023-03-25T05:24:13.434Z,5.22
2023-03-25T05:27:10.315Z,5.18
2023-03-25T05:30:08.382Z,5.29
2023-03-25T05:33:06.542Z,5.22
2023-03-25T05:36:04.818Z,5.28
2023-03-25T05:39:01.959Z,5.14
2023-03-25T05:42:02.868Z,5.16
2023-03-25T05:44:59.823Z,5.19
2023-03-25T05:47:56.993Z,5.21
2023-03-25T05:50:56.574Z,5.21
2023-03-25T05:53:53.630Z,5.20
2023-03-25T05:56:51.498Z,5.28
2023-03-25T05:59:48.993Z,5.30
2023-03-25T06:02:46.111Z,5.22
2023-03-25T06:05:43.062Z,5.18
2023-03-25T06:08:47.731Z,5.20
2023-03-25T06:11:44.608Z,5.22
2023-03-25T06:14:43.076Z,5.23
2023-03-25T06:17:40.522Z,5.18
2023-03-25T06:20:37.488Z,5.05
2023-03-25T06:23:35.446Z,5.11
2023-03-25T06:26:32.885Z,5.12
2023-03-25T06:29:29.929Z,5.07
2023-03-25T06:32:27.213Z,5.16
2023-03-25T06:35:24.131Z,5.04
2023-03-25T06:38:22.030Z,5.10
2023-03-25T06:41:20.471Z,5.03
2023-03-25T06:44:24.408Z,5.07
2023-03-25T06:47:22.421Z,5.04
2023-03-25T06:50:19.317Z,5.07
2023-03-25T06:53:16.258Z,5.16
2023-03-25T06:56:13.108Z,5.07
2023-03-25T06:59:09.976Z,4.96
2023-03-25T07:02:07.418Z,5.05
2023-03-25T07:05:06.127Z,5.00
2023-03-25T07:08:03.084Z,5.03
2023-03-25T07:11:05.746Z,4.98
2023-03-25T07:14:02.685Z,5.04
2023-03-25T07:16:59.564Z,5.04
2023-03-25T07:19:56.446Z,5.09
2023-03-25T07:22:55.417Z,5.17
2023-03-25T07:25:53.013Z,5.04
2023-03-25T07:28:50.258Z,5.15
2023-03-25T07:31:47.164Z,5.10
2023-03-25T07:34:44.411Z,5.02
2023-03-25T07:37:41.239Z,5.11
2023-03-25T07:40:38.371Z,5.20
2023-03-25T07:43:35.394Z,5.15
2023-03-25T07:46:32.487Z,5.25
2023-03-25T07:49:29.517Z,5.18
2023-03-25T07:52:26.376Z,5.25
2023-03-25T07:55:23.219Z,5.38
2023-03-25T07:58:20.298Z,5.38
2023-03-25T08:01:17.216Z,5.41
2023-03-25T08:04:14.140Z,5.46
2023-03-25T08:07:11.009Z,5.43
2023-03-25T08:10:08.443Z,5.33
2023-03-25T08:13:05.533Z,5.36
2023-03-25T08:16:03.073Z,5.48
2023-03-25T08:18:59.913Z,5.50
2023-03-25T08:21:56.899Z,5.52
2023-03-25T08:24:54.053Z,5.56
2023-03-25T08:27:51.161Z,5.66
2023-03-25T08:30:49.358Z,5.87
2023-03-25T08:33:52.415Z,5.81
2023-03-25T08:36:49.832Z,5.87
2023-03-25T08:39:50.083Z,6.02
2023-03-25T08:42:47.022Z,6.10
2023-03-25T08:45:43.978Z,6.00
2023-03-25T08:48:40.848Z,6.06
2023-03-25T08:51:37.786Z,5.93
2023-03-25T08:54:34.954Z,6.09
2023-03-25T08:57:31.795Z,6.02
2023-03-25T09:00:28.687Z,5.91
2023-03-25T09:03:27.403Z,5.88
2023-03-25T09:06:24.630Z,5.99
2023-03-25T09:09:21.592Z,6.11
2023-03-25T09:12:18.415Z,5.98
2023-03-25T09:15:15.348Z,5.96
2023-03-25T09:18:12.258Z,5.99
2023-03-25T09:21:09.474Z,6.06
2023-03-25T09:24:09.136Z,6.17
2023-03-25T09:27:06.082Z,6.14
2023-03-25T09:30:04.839Z,5.93
2023-03-25T09:33:01.815Z,6.27
2023-03-25T09:35:58.758Z,6.23
2023-03-25T09:38:55.612Z,6.23
2023-03-25T09:42:36.616Z,6.11
2023-03-25T09:45:39.316Z,6.15
2023-03-25T09:48:45.929Z,6.35
2023-03-25T09:51:44.835Z,6.41
2023-03-25T09:54:52.727Z,6.33
2023-03-25T09:58:02.494Z,6.54
2023-03-25T10:01:27.659Z,6.42
2023-03-25T10:05:05.155Z,6.33
2023-03-25T10:08:42.289Z,6.63
2023-03-25T10:12:14.059Z,6.53
2023-03-25T10:15:16.752Z,6.72
2023-03-25T10:18:47.660Z,6.42
2023-03-25T10:21:51.399Z,6.44
2023-03-25T10:25:03.545Z,6.49
2023-03-25T10:28:01.452Z,6.68
2023-03-25T10:31:00.044Z,6.53
2023-03-25T10:34:04.327Z,6.53
2023-03-25T10:37:07.785Z,6.57
2023-03-25T10:40:21.562Z,6.72
2023-03-25T10:43:25.851Z,6.69
2023-03-25T10:46:47.242Z,6.77
2023-03-25T10:49:46.984Z,6.91
2023-03-25T10:52:44.543Z,7.12
2023-03-25T10:55:41.656Z,7.03
2023-03-25T10:58:41.205Z,6.83
2023-03-25T11:01:43.455Z,6.84
2023-03-25T11:04:43.714Z,7.04
2023-03-25T11:07:44.334Z,7.27
2023-03-25T11:10:47.055Z,7.08
2023-03-25T11:13:43.978Z,7.01
2023-03-25T11:16:46.702Z,7.12
2023-03-25T11:20:02.099Z,7.32
2023-03-25T11:23:14.597Z,7.55
2023-03-25T11:26:36.855Z,7.47
2023-03-25T11:29:35.510Z,7.64
2023-03-25T11:32:40.024Z,7.62
2023-03-25T11:35:44.516Z,7.74
2023-03-25T11:38:41.705Z,7.67
2023-03-25T11:41:38.577Z,7.86
2023-03-25T11:44:35.666Z,7.72
2023-03-25T11:47:38.046Z,7.61
2023-03-25T11:50:35.538Z,5.06
2023-03-25T11:53:33.786Z,4.31
2023-03-25T11:56:39.470Z,3.82
2023-03-25T11:59:43.204Z,3.48
2023-03-25T12:02:41.112Z,3.30
2023-03-25T12:05:38.062Z,3.54
2023-03-25T12:08:57.092Z,3.42
2023-03-25T12:12:18.490Z,3.70
2023-03-25T12:15:23.957Z,3.71
2023-03-25T12:18:53.784Z,3.46
2023-03-25T12:21:59.962Z,3.50
2023-03-25T12:25:17.763Z,3.98
2023-03-25T12:28:31.001Z,4.24
2023-03-25T12:32:14.372Z,4.48
2023-03-25T12:35:44.370Z,5.17
2023-03-25T12:39:10.229Z,5.87
2023-03-25T12:42:41.250Z,5.76
2023-03-25T12:45:54.528Z,6.35
2023-03-25T12:49:13.196Z,6.05
2023-03-25T12:52:34.949Z,6.45
2023-03-25T12:56:03.130Z,7.90
2023-03-25T12:59:38.450Z,7.30
2023-03-25T13:03:12.533Z,6.19
2023-03-25T13:06:55.053Z,6.03
2023-03-25T13:10:03.709Z,5.99
2023-03-25T13:13:08.352Z,5.95
2023-03-25T13:16:11.546Z,6.18
2023-03-25T13:19:17.430Z,6.63
2023-03-25T13:22:24.745Z,6.96
2023-03-25T13:25:33.567Z,6.96
2023-03-25T13:28:40.505Z,7.74
2023-03-25T13:31:43.311Z,7.20
2023-03-25T13:35:26.479Z,7.33
2023-03-25T13:38:38.269Z,8.11
2023-03-25T13:41:43.351Z,8.77
2023-03-25T13:44:43.355Z,7.59
2023-03-25T13:47:47.868Z,8.31
2023-03-25T13:50:45.025Z,8.86
2023-03-25T13:53:58.895Z,8.50
2023-03-25T13:57:36.758Z,9.15
2023-03-25T14:01:13.330Z,9.54
2023-03-25T14:04:25.261Z,8.86
2023-03-25T14:08:18.583Z,9.49
2023-03-25T14:11:42.094Z,10.02
2023-03-25T14:15:15.718Z,9.58
2023-03-25T14:18:19.919Z,10.08
2023-03-25T14:21:39.484Z,10.30
2023-03-25T14:24:37.017Z,10.42
2023-03-25T14:27:37.511Z,9.90
2023-03-25T14:30:35.352Z,10.22
2023-03-25T14:34:07.662Z,9.62
2023-03-25T14:37:07.634Z,9.44
2023-03-25T14:41:02.957Z,9.47
2023-03-25T14:44:18.621Z,8.84
2023-03-25T14:47:22.172Z,8.92
2023-03-25T14:50:21.865Z,8.77
2023-03-25T14:53:19.117Z,8.69
2023-03-25T14:56:21.999Z,10.19
2023-03-25T14:59:30.986Z,10.78
2023-03-25T15:02:33.571Z,9.81
2023-03-25T15:05:33.932Z,8.73
2023-03-25T15:08:39.268Z,8.99
2023-03-25T15:11:39.280Z,8.77
2023-03-25T15:14:42.089Z,8.82
2023-03-25T15:17:47.117Z,8.52
2023-03-25T15:20:44.052Z,8.68
2023-03-25T15:24:07.037Z,8.70
2023-03-25T15:27:41.025Z,8.82
2023-03-25T15:31:09.613Z,8.67
2023-03-25T15:34:33.589Z,8.76
2023-03-25T15:38:02.283Z,8.41
2023-03-25T15:41:30.875Z,8.58
2023-03-25T15:45:12.536Z,8.67
2023-03-25T15:48:51.118Z,8.55
2023-03-25T15:52:05.131Z,8.47
2023-03-25T15:55:17.634Z,8.17
2023-03-25T15:58:26.139Z,8.07
2023-03-25T16:01:32.937Z,8.16
2023-03-25T16:04:44.140Z,7.96
2023-03-25T16:07:42.316Z,7.96
2023-03-25T16:10:41.437Z,8.15
2023-03-25T16:13:38.264Z,8.12
2023-03-25T16:16:38.535Z,8.09
2023-03-25T16:19:49.389Z,8.10
2023-03-25T16:22:54.654Z,8.25
2023-03-25T16:25:52.820Z,8.46
2023-03-25T16:28:51.477Z,8.72
2023-03-25T16:32:06.974Z,8.42
2023-03-25T16:35:05.937Z,8.34
2023-03-25T16:38:03.861Z,8.11
2023-03-25T16:41:12.385Z,8.04
2023-03-25T16:44:17.370Z,7.87
2023-03-25T16:47:16.244Z,7.91
2023-03-25T16:50:19.892Z,7.66
2023-03-25T16:53:18.195Z,7.82
2023-03-25T16:56:14.898Z,7.81
2023-03-25T16:59:36.444Z,7.61
2023-03-25T17:02:44.076Z,7.72
2023-03-25T17:06:26.041Z,7.63
2023-03-25T17:09:35.146Z,7.54
2023-03-25T17:12:32.053Z,7.27
2023-03-25T17:15:34.529Z,7.45
2023-03-25T17:18:32.261Z,7.39
2023-03-25T17:21:32.976Z,7.31
2023-03-25T17:24:41.785Z,7.40
2023-03-25T17:27:40.672Z,7.10
2023-03-25T17:30:44.274Z,6.99
2023-03-25T17:34:04.033Z,7.04
2023-03-25T17:37:04.589Z,6.96
2023-03-25T17:40:11.692Z,7.12
2023-03-25T17:43:19.843Z,7.05
2023-03-25T17:46:25.071Z,7.25
2023-03-25T17:49:21.910Z,7.23
2023-03-25T17:52:20.266Z,7.37
2023-03-25T17:55:17.297Z,7.39
2023-03-25T17:58:16.005Z,7.35
2023-03-25T18:01:13.886Z,7.46
2023-03-25T18:04:14.319Z,7.54
2023-03-25T18:07:11.974Z,7.51
2023-03-25T18:10:19.205Z,7.55
2023-03-25T18:13:16.121Z,7.60
2023-03-25T18:16:13.349Z,7.67
2023-03-25T18:19:27.472Z,7.67
2023-03-25T18:22:24.361Z,7.70
2023-03-25T18:25:21.528Z,7.61
2023-03-25T18:28:18.373Z,7.56
2023-03-25T18:31:17.523Z,7.41
2023-03-25T18:34:15.629Z,7.12
2023-03-25T18:37:12.566Z,6.74
2023-03-25T18:40:28.236Z,6.61
2023-03-25T18:43:25.287Z,6.51
2023-03-25T18:46:22.179Z,6.57
2023-03-25T18:49:20.003Z,6.47
2023-03-25T18:52:16.864Z,6.48
2023-03-25T18:55:14.157Z,6.45
2023-03-25T18:58:23.121Z,6.19
2023-03-25T19:01:21.782Z,6.08
2023-03-25T19:04:18.952Z,6.11
2023-03-25T19:07:15.770Z,6.15
2023-03-25T19:10:18.372Z,6.14
2023-03-25T19:13:16.020Z,6.18
2023-03-25T19:16:12.902Z,5.99
2023-03-25T19:19:11.670Z,6.17
2023-03-25T19:22:09.868Z,6.03
2023-03-25T19:25:07.532Z,6.08
2023-03-25T19:28:04.689Z,5.81
2023-03-25T19:31:02.181Z,5.76
2023-03-25T19:33:59.475Z,5.69
2023-03-25T19:37:02.524Z,5.70
2023-03-25T19:39:59.537Z,5.61
2023-03-25T19:42:58.366Z,5.70
2023-03-25T19:45:59.446Z,5.60
2023-03-25T19:48:56.349Z,5.80
2023-03-25T19:51:53.279Z,5.79
2023-03-25T19:54:51.224Z,5.81
2023-03-25T19:57:48.674Z,5.95
2023-03-25T20:00:46.283Z,6.16
2023-03-25T20:03:43.201Z,6.16
2023-03-25T20:06:41.098Z,6.47
2023-03-25T20:09:38.949Z,6.58
2023-03-25T20:12:37.166Z,6.44
2023-03-25T20:15:34.023Z,6.52
2023-03-25T20:18:30.881Z,6.54
2023-03-25T20:21:27.833Z,6.57
2023-03-25T20:24:24.756Z,6.57
2023-03-25T20:27:21.582Z,6.63
2023-03-25T20:30:19.990Z,6.68
2023-03-25T20:33:17.737Z,6.79
2023-03-25T20:36:14.857Z,6.68
2023-03-25T20:39:11.826Z,6.74
2023-03-25T20:42:09.765Z,6.77
2023-03-25T20:45:08.223Z,6.81
2023-03-25T20:48:06.697Z,6.82
2023-03-25T20:51:08.530Z,6.83
2023-03-25T20:54:05.483Z,6.87
2023-03-25T20:57:02.322Z,6.84
2023-03-25T20:59:59.232Z,6.81
2023-03-25T21:02:57.611Z,6.80
2023-03-25T21:06:07.379Z,6.81
2023-03-25T21:09:10.888Z,6.75
2023-03-25T21:12:07.789Z,6.74
2023-03-25T21:15:06.599Z,6.67
2023-03-25T21:18:03.820Z,6.57
2023-03-25T21:21:02.583Z,6.46
2023-03-25T21:23:59.400Z,6.39
2023-03-25T21:26:56.273Z,6.02
2023-03-25T21:29:53.120Z,5.87
2023-03-25T21:32:49.959Z,5.40
2023-03-25T21:35:53.887Z,4.93
2023-03-25T21:38:56.699Z,4.87
2023-03-25T21:41:53.605Z,4.93
2023-03-25T21:44:50.437Z,4.86
2023-03-25T21:47:54.940Z,5.09
2023-03-25T21:50:59.010Z,4.89
2023-03-25T21:53:58.369Z,5.00
2023-03-25T21:56:55.729Z,4.94
2023-03-25T21:59:55.412Z,4.89
2023-03-25T22:02:58.272Z,5.02
2023-03-25T22:06:02.133Z,4.87
2023-03-25T22:08:59.425Z,4.86
2023-03-25T22:11:56.300Z,4.91
2023-03-25T22:14:53.133Z,4.92
2023-03-25T22:17:50.095Z,4.65
2023-03-25T22:20:46.982Z,4.88
2023-03-25T22:23:45.726Z,4.86
2023-03-25T22:26:43.153Z,4.82
2023-03-25T22:29:41.476Z,5.05
2023-03-25T22:32:38.354Z,4.95
2023-03-25T22:35:35.431Z,4.94
2023-03-25T22:38:33.606Z,4.91
2023-03-25T22:41:30.718Z,4.93
2023-03-25T22:44:28.787Z,4.82
2023-03-25T22:47:25.633Z,4.86
2023-03-25T22:50:22.600Z,4.87
2023-03-25T22:53:19.470Z,4.79
2023-03-25T22:56:16.361Z,4.78
2023-03-25T22:59:14.699Z,4.83
2023-03-25T23:02:14.203Z,4.72
2023-03-25T23:05:11.285Z,4.87
2023-03-25T23:08:08.702Z,4.99
2023-03-25T23:11:12.457Z,5.04
2023-03-25T23:14:13.007Z,5.16
2023-03-25T23:17:13.325Z,5.14
2023-03-25T23:20:11.490Z,5.20
2023-03-25T23:23:08.346Z,5.14
2023-03-25T23:26:09.002Z,5.00
2023-03-25T23:29:10.944Z,4.84
2023-03-25T23:32:09.518Z,4.83
2023-03-25T23:35:06.955Z,4.93
2023-03-25T23:38:04.718Z,4.84
2023-03-25T23:41:05.450Z,4.88
2023-03-25T23:44:03.284Z,4.75
2023-03-25T23:47:00.218Z,4.77
2023-03-25T23:49:58.125Z,4.71
2023-03-25T23:52:56.010Z,4.80
2023-03-25T23:55:55.894Z,4.91
2023-03-25T23:58:53.325Z,4.82
